createdAt,value
2023-02-22T00:00:42.678Z,99744.75
2023-02-22T00:03:14.978Z,99738.59
2023-02-22T00:05:46.953Z,99737.72
2023-02-22T00:08:17.608Z,99734.38
2023-02-22T00:10:45.805Z,99737.13
2023-02-22T00:13:15.056Z,99733.97
2023-02-22T00:15:42.637Z,99736.72
2023-02-22T00:18:11.312Z,99727.75
2023-02-22T00:20:39.773Z,99725.16
2023-02-22T00:23:08.219Z,99728.00
2023-02-22T00:25:37.653Z,99717.50
2023-02-22T00:28:05.824Z,99720.97
2023-02-22T00:30:34.629Z,99714.72
2023-02-22T00:33:02.852Z,99724.47
2023-02-22T00:35:32.346Z,99721.78
2023-02-22T00:38:02.290Z,99720.81
2023-02-22T00:40:31.505Z,99715.75
2023-02-22T00:43:01.815Z,99721.22
2023-02-22T00:45:31.533Z,99718.88
2023-02-22T00:47:59.849Z,99712.03
2023-02-22T00:50:29.834Z,99709.25
2023-02-22T00:52:58.419Z,99708.38
2023-02-22T00:55:27.729Z,99705.63
2023-02-22T00:57:56.324Z,99701.22
2023-02-22T01:00:27.421Z,99700.22
2023-02-22T01:02:56.899Z,99697.66
2023-02-22T01:05:27.079Z,99706.66
2023-02-22T01:07:56.621Z,99696.09
2023-02-22T01:10:27.052Z,99697.94
2023-02-22T01:12:55.303Z,99690.78
2023-02-22T01:15:27.158Z,99694.44
2023-02-22T01:17:54.721Z,99680.34
2023-02-22T01:20:25.327Z,99680.34
2023-02-22T01:22:54.560Z,99676.03
2023-02-22T01:25:25.373Z,99670.72
2023-02-22T01:27:53.795Z,99673.13
2023-02-22T01:30:23.186Z,99670.88
2023-02-22T01:32:52.843Z,99668.22
2023-02-22T01:35:23.023Z,99663.69
2023-02-22T01:37:50.628Z,99670.72
2023-02-22T01:40:21.130Z,99663.56
2023-02-22T01:42:52.650Z,99656.69
2023-02-22T01:46:01.125Z,99653.22
2023-02-22T01:48:35.868Z,99652.53
2023-02-22T01:51:10.553Z,99649.63
2023-02-22T01:53:42.307Z,99654.94
2023-02-22T01:56:11.225Z,99648.91
2023-02-22T01:58:41.784Z,99646.44
2023-02-22T02:01:10.265Z,99639.28
2023-02-22T02:03:41.815Z,99642.97
2023-02-22T02:06:13.252Z,99644.69
2023-02-22T02:08:51.532Z,99647.41
2023-02-22T02:11:21.742Z,99645.69
2023-02-22T02:13:51.750Z,99640.47
2023-02-22T02:16:21.709Z,99642.19
2023-02-22T02:18:51.003Z,99643.22
2023-02-22T02:21:40.711Z,99639.66
2023-02-22T02:24:51.493Z,99641.38
2023-02-22T02:27:20.998Z,99639.66
2023-02-22T02:30:13.855Z,99637.00
2023-02-22T02:32:53.437Z,99631.25
2023-02-22T02:35:29.794Z,99629.50
2023-02-22T02:38:02.640Z,99627.53
2023-02-22T02:40:38.228Z,99624.34
2023-02-22T02:43:18.486Z,99619.81
2023-02-22T02:45:52.938Z,99613.09
2023-02-22T02:48:26.488Z,99606.94
2023-02-22T02:50:56.377Z,99615.97
2023-02-22T02:53:28.155Z,99603.63
2023-02-22T02:55:55.623Z,99608.28
2023-02-22T02:58:24.518Z,99606.84
2023-02-22T03:00:55.505Z,99602.63
2023-02-22T03:03:47.510Z,99600.06
2023-02-22T03:06:29.639Z,99598.75
2023-02-22T03:09:06.124Z,99588.13
2023-02-22T03:11:42.134Z,99598.91
2023-02-22T03:14:17.676Z,99590.78
2023-02-22T03:16:51.167Z,99588.31
2023-02-22T03:19:27.251Z,99584.66
2023-02-22T03:22:00.821Z,99581.16
2023-02-22T03:24:32.953Z,99588.31
2023-02-22T03:27:04.669Z,99579.56
2023-02-22T03:29:36.511Z,99578.75
2023-02-22T03:32:08.674Z,99579.81
2023-02-22T03:34:42.340Z,99574.78
2023-02-22T03:37:16.590Z,99571.34
2023-02-22T03:39:46.724Z,99572.28
2023-02-22T03:42:18.510Z,99561.16
2023-02-22T03:44:48.145Z,99564.81
2023-02-22T03:47:18.606Z,99560.41
2023-02-22T03:49:52.216Z,99556.09
2023-02-22T03:52:20.343Z,99560.56
2023-02-22T03:54:47.868Z,99553.56
2023-02-22T03:57:21.950Z,99550.06
2023-02-22T03:59:49.742Z,99551.88
2023-02-22T04:02:18.966Z,99551.91
2023-02-22T04:04:48.575Z,99545.00
2023-02-22T04:07:16.460Z,99544.31
2023-02-22T04:09:43.954Z,99549.56
2023-02-22T04:12:11.423Z,99544.47
2023-02-22T04:14:38.940Z,99545.38
2023-02-22T04:17:06.448Z,99548.19
2023-02-22T04:19:33.978Z,99547.31
2023-02-22T04:22:02.815Z,99542.06
2023-02-22T04:24:30.686Z,99545.84
2023-02-22T04:26:58.231Z,99551.97
2023-02-22T04:29:25.733Z,99543.34
2023-02-22T04:31:53.447Z,99546.06
2023-02-22T04:34:21.064Z,99545.31
2023-02-22T04:36:48.634Z,99540.41
2023-02-22T04:39:17.545Z,99537.09
2023-02-22T04:41:45.014Z,99539.03
2023-02-22T04:44:12.485Z,99547.81
2023-02-22T04:46:40.047Z,99545.25
2023-02-22T04:49:07.631Z,99540.16
2023-02-22T04:51:35.833Z,99544.53
2023-02-22T04:54:03.590Z,99541.84
2023-02-22T04:56:32.439Z,99545.09
2023-02-22T04:58:59.970Z,99537.97
2023-02-22T05:01:33.470Z,99538.16
2023-02-22T05:04:02.529Z,99535.44
2023-02-22T05:06:30.005Z,99530.19
2023-02-22T05:08:57.507Z,99531.31
2023-02-22T05:11:25.154Z,99527.91
2023-02-22T05:13:54.011Z,99526.19
2023-02-22T05:16:21.633Z,99527.25
2023-02-22T05:18:49.212Z,99529.88
2023-02-22T05:21:17.009Z,99527.41
2023-02-22T05:23:44.659Z,99521.47
2023-02-22T05:26:12.154Z,99526.16
2023-02-22T05:28:39.998Z,99525.47
2023-02-22T05:31:09.626Z,99528.25
2023-02-22T05:33:39.532Z,99515.31
2023-02-22T05:36:08.696Z,99517.31
2023-02-22T05:38:43.024Z,99515.75
2023-02-22T05:41:10.944Z,99515.84
2023-02-22T05:43:38.706Z,99517.75
2023-02-22T05:46:06.605Z,99513.56
2023-02-22T05:48:35.478Z,99504.97
2023-02-22T05:51:03.698Z,99501.69
2023-02-22T05:53:31.509Z,99514.09
2023-02-22T05:55:58.987Z,99500.78
2023-02-22T05:58:26.464Z,99501.56
2023-02-22T06:00:54.050Z,99501.50
2023-02-22T06:03:21.571Z,99499.53
2023-02-22T06:05:50.577Z,99495.88
2023-02-22T06:08:18.301Z,99493.19
2023-02-22T06:10:45.975Z,99497.66
2023-02-22T06:13:13.548Z,99503.84
2023-02-22T06:15:41.432Z,99495.50
2023-02-22T06:18:08.911Z,99494.19
2023-02-22T06:20:36.650Z,99490.69
2023-02-22T06:23:05.484Z,99495.69
2023-02-22T06:25:33.321Z,99494.16
2023-02-22T06:28:01.658Z,99491.25
2023-02-22T06:30:30.762Z,99480.53
2023-02-22T06:32:58.462Z,99486.56
2023-02-22T06:35:26.121Z,99487.25
2023-02-22T06:37:54.032Z,99482.81
2023-02-22T06:40:22.890Z,99494.84
2023-02-22T06:42:50.562Z,99487.59
2023-02-22T06:45:18.924Z,99494.53
2023-02-22T06:47:47.202Z,99486.44
2023-02-22T06:50:22.268Z,99493.28
2023-02-22T06:52:49.761Z,99495.78
2023-02-22T06:55:23.330Z,99494.94
2023-02-22T06:57:51.634Z,99497.50
2023-02-22T07:00:21.391Z,99500.84
2023-02-22T07:02:49.538Z,99499.88
2023-02-22T07:05:18.944Z,99497.97
2023-02-22T07:07:46.799Z,99495.41
2023-02-22T07:10:21.200Z,99497.91
2023-02-22T07:12:52.340Z,99496.03
2023-02-22T07:15:21.427Z,99496.72
2023-02-22T07:17:49.222Z,99492.53
2023-02-22T07:20:17.510Z,99494.13
2023-02-22T07:22:44.990Z,99492.84
2023-02-22T07:25:12.640Z,99491.84
2023-02-22T07:27:41.436Z,99488.28
2023-02-22T07:30:17.427Z,99490.72
2023-02-22T07:32:45.438Z,99494.69
2023-02-22T07:35:16.749Z,99489.91
2023-02-22T07:37:44.558Z,99487.69
2023-02-22T07:40:13.265Z,99493.38
2023-02-22T07:42:54.703Z,99482.25
2023-02-22T07:45:24.502Z,99477.34
2023-02-22T07:47:52.196Z,99490.28
2023-02-22T07:50:21.471Z,99488.06
2023-02-22T07:52:50.666Z,99485.97
2023-02-22T07:55:20.457Z,99480.22
2023-02-22T07:57:49.091Z,99483.38
2023-02-22T08:00:23.625Z,99473.22
2023-02-22T08:02:52.764Z,99476.34
2023-02-22T08:05:21.366Z,99474.41
2023-02-22T08:07:48.952Z,99469.69
2023-02-22T08:10:18.060Z,99470.91
2023-02-22T08:12:45.602Z,99464.47
2023-02-22T08:15:17.944Z,99461.47
2023-02-22T08:17:45.527Z,99469.06
2023-02-22T08:20:14.864Z,99465.44
2023-02-22T08:22:44.415Z,99462.56
2023-02-22T08:25:12.017Z,99464.88
2023-02-22T08:27:40.086Z,99469.91
2023-02-22T08:30:09.183Z,99458.28
2023-02-22T08:32:36.863Z,99468.44
2023-02-22T08:35:04.948Z,99457.53
2023-02-22T08:37:34.037Z,99459.06
2023-02-22T08:40:01.528Z,99452.50
2023-02-22T08:42:28.998Z,99447.75
2023-02-22T08:44:56.699Z,99444.88
2023-02-22T08:47:24.381Z,99452.69
2023-02-22T08:49:51.836Z,99448.78
2023-02-22T08:52:21.225Z,99445.63
2023-02-22T08:54:50.122Z,99439.41
2023-02-22T08:57:18.023Z,99441.56
2023-02-22T08:59:46.939Z,99429.66
2023-02-22T09:02:16.868Z,99436.22
2023-02-22T09:04:44.703Z,99433.13
2023-02-22T09:07:12.579Z,99437.91
2023-02-22T09:09:40.098Z,99434.13
2023-02-22T09:12:09.221Z,99438.28
2023-02-22T09:14:37.016Z,99429.19
2023-02-22T09:17:05.963Z,99430.34
2023-02-22T09:19:33.682Z,99429.97
2023-02-22T09:22:01.411Z,99431.53
2023-02-22T09:24:29.234Z,99432.91
2023-02-22T09:26:59.166Z,99432.13
2023-02-22T09:29:29.481Z,99426.94
2023-02-22T09:31:57.819Z,99429.25
2023-02-22T09:34:29.376Z,99422.13
2023-02-22T09:36:58.226Z,99421.72
2023-02-22T09:39:25.942Z,99421.19
2023-02-22T09:42:02.365Z,99414.00
2023-02-22T09:44:39.938Z,99415.28
2023-02-22T09:47:18.068Z,99407.78
2023-02-22T09:49:57.307Z,99409.69
2023-02-22T09:52:28.869Z,99408.31
2023-02-22T09:55:06.118Z,99404.78
2023-02-22T09:57:37.985Z,99406.16
2023-02-22T10:00:15.040Z,99398.59
2023-02-22T10:02:50.278Z,99403.03
2023-02-22T10:05:20.438Z,99405.56
2023-02-22T10:07:54.337Z,99402.78
2023-02-22T10:10:24.979Z,99407.31
2023-02-22T10:13:00.432Z,99404.22
2023-02-22T10:15:38.106Z,99396.81
2023-02-22T10:18:39.011Z,99399.38
2023-02-22T10:21:17.298Z,99397.63
2023-02-22T10:23:53.453Z,99397.34
2023-02-22T10:26:26.683Z,99399.19
2023-02-22T10:28:59.234Z,99397.50
2023-02-22T10:31:33.544Z,99398.19
2023-02-22T10:34:05.612Z,99402.03
2023-02-22T10:36:34.561Z,99404.75
2023-02-22T10:39:16.317Z,99401.16
2023-02-22T10:41:50.201Z,99401.44
2023-02-22T10:44:17.893Z,99401.47
2023-02-22T10:46:48.534Z,99404.44
2023-02-22T10:49:21.727Z,99401.06
2023-02-22T10:51:58.437Z,99397.47
2023-02-22T10:54:29.581Z,99394.34
2023-02-22T10:56:57.866Z,99394.91
2023-02-22T10:59:32.670Z,99389.25
2023-02-22T11:02:02.744Z,99386.50
2023-02-22T11:04:46.091Z,99388.00
2023-02-22T11:07:21.727Z,99380.09
2023-02-22T11:09:51.571Z,99377.53
2023-02-22T11:12:21.435Z,99386.66
2023-02-22T11:14:49.444Z,99374.53
2023-02-22T11:17:25.558Z,99371.00
2023-02-22T11:19:53.353Z,99367.56
2023-02-22T11:22:24.744Z,99368.78
2023-02-22T11:27:38.794Z,99360.06
2023-02-22T11:30:21.672Z,99350.03
2023-02-22T11:32:55.582Z,99349.25
2023-02-22T11:35:36.908Z,99351.81
2023-02-22T11:38:20.925Z,99350.19
2023-02-22T11:41:05.178Z,99341.09
2023-02-22T11:43:33.233Z,99341.66
2023-02-22T11:46:04.763Z,99342.34
2023-02-22T11:48:36.889Z,99334.06
2023-02-22T11:51:16.117Z,99331.38
2023-02-22T11:54:01.089Z,99326.88
2023-02-22T11:56:38.091Z,99320.13
2023-02-22T11:59:16.679Z,99324.44
2023-02-22T12:01:51.259Z,99327.28
2023-02-22T12:04:41.977Z,99330.31
2023-02-22T12:07:23.111Z,99334.19
2023-02-22T12:10:00.502Z,99320.69
2023-02-22T12:12:36.802Z,99322.94
2023-02-22T12:15:13.787Z,99320.16
2023-02-22T12:17:59.438Z,99320.16
2023-02-22T12:20:33.213Z,99322.63
2023-02-22T12:23:09.662Z,99314.88
2023-02-22T12:25:42.054Z,99304.50
2023-02-22T12:28:24.813Z,99307.00
2023-02-22T12:30:57.896Z,99303.97
2023-02-22T12:33:29.796Z,99298.38
2023-02-22T12:36:01.515Z,99296.53
2023-02-22T12:38:37.127Z,99296.09
2023-02-22T12:41:13.807Z,99294.06
2023-02-22T12:43:47.296Z,99289.16
2023-02-22T12:46:18.957Z,99284.53
2023-02-22T12:48:53.274Z,99286.53
2023-02-22T12:51:29.138Z,99287.06
2023-02-22T12:54:05.815Z,99284.50
2023-02-22T12:56:38.153Z,99286.34
2023-02-22T12:59:13.497Z,99287.50
2023-02-22T13:01:44.145Z,99288.34
2023-02-22T13:04:20.563Z,99290.03
2023-02-22T13:07:07.772Z,99287.56
2023-02-22T13:10:01.000Z,99294.50
2023-02-22T13:12:37.353Z,99299.50
2023-02-22T13:15:16.977Z,99291.38
2023-02-22T13:17:55.753Z,99290.31
2023-02-22T13:20:29.161Z,99297.78
2023-02-22T13:23:04.099Z,99297.25
2023-02-22T13:25:41.709Z,99286.44
2023-02-22T13:28:23.065Z,99284.59
2023-02-22T13:31:03.021Z,99292.78
2023-02-22T13:33:45.711Z,99282.44
2023-02-22T13:36:26.853Z,99288.72
2023-02-22T13:39:41.261Z,99290.44
2023-02-22T13:42:23.375Z,99283.63
2023-02-22T13:45:10.497Z,99289.13
2023-02-22T13:48:06.550Z,99287.66
2023-02-22T13:50:51.696Z,99283.53
2023-02-22T13:53:25.703Z,99282.25
2023-02-22T13:55:57.997Z,99285.22
2023-02-22T13:58:26.111Z,99284.53
2023-02-22T14:00:55.653Z,99281.72
2023-02-22T14:03:41.745Z,99289.03
2023-02-22T14:06:11.725Z,99283.22
2023-02-22T14:08:43.817Z,99282.59
2023-02-22T14:11:56.770Z,99280.09
2023-02-22T14:14:25.864Z,99279.53
2023-02-22T14:17:28.456Z,99283.81
2023-02-22T14:20:05.697Z,99280.38
2023-02-22T14:22:33.303Z,99280.97
2023-02-22T14:25:00.839Z,99286.59
2023-02-22T14:27:41.274Z,99281.44
2023-02-22T14:30:25.973Z,99284.09
2023-02-22T14:32:53.690Z,99282.66
2023-02-22T14:35:29.990Z,99277.34
2023-02-22T14:38:01.425Z,99277.66
2023-02-22T14:40:31.214Z,99284.53
2023-02-22T14:43:03.931Z,99279.00
2023-02-22T14:45:35.479Z,99286.94
2023-02-22T14:48:13.597Z,99282.53
2023-02-22T14:50:48.903Z,99281.34
2023-02-22T14:53:25.232Z,99280.19
2023-02-22T14:55:58.036Z,99288.22
2023-02-22T14:58:31.749Z,99279.00
2023-02-22T15:01:00.857Z,99286.59
2023-02-22T15:03:33.103Z,99283.94
2023-02-22T15:06:06.089Z,99278.78
2023-02-22T15:08:34.384Z,99281.25
2023-02-22T15:11:03.440Z,99277.91
2023-02-22T15:13:34.098Z,99281.66
2023-02-22T15:16:07.746Z,99281.63
2023-02-22T15:18:40.899Z,99284.53
2023-02-22T15:21:13.413Z,99279.91
2023-02-22T15:23:44.077Z,99281.13
2023-02-22T15:26:19.011Z,99280.59
2023-02-22T15:28:46.720Z,99287.88
2023-02-22T15:31:25.662Z,99281.59
2023-02-22T15:33:54.690Z,99275.69
2023-02-22T15:36:25.862Z,99288.69
2023-02-22T15:38:56.733Z,99285.34
2023-02-22T15:41:28.760Z,99294.94
2023-02-22T15:44:17.557Z,99288.97
2023-02-22T15:46:50.575Z,99297.44
2023-02-22T15:49:24.271Z,99294.44
2023-02-22T15:52:04.250Z,99293.81
2023-02-22T15:54:42.355Z,99289.69
2023-02-22T15:57:10.324Z,99292.09
2023-02-22T15:59:44.673Z,99291.44
2023-02-22T16:02:31.425Z,99290.38
2023-02-22T16:05:02.298Z,99298.53
2023-02-22T16:07:30.583Z,99298.81
2023-02-22T16:09:59.013Z,99294.13
2023-02-22T16:12:28.760Z,99300.22
2023-02-22T16:14:57.203Z,99299.56
2023-02-22T16:17:31.791Z,99303.66
2023-02-22T16:19:59.716Z,99304.94
2023-02-22T16:22:33.651Z,99308.03
2023-02-22T16:25:24.996Z,99306.00
2023-02-22T16:27:55.808Z,99303.13
2023-02-22T16:30:26.808Z,99315.56
2023-02-22T16:32:57.165Z,99315.00
2023-02-22T16:35:28.524Z,99313.31
2023-02-22T16:37:59.397Z,99313.81
2023-02-22T16:40:32.115Z,99316.47
2023-02-22T16:43:01.839Z,99322.00
2023-02-22T16:45:29.565Z,99315.16
2023-02-22T16:48:00.153Z,99318.56
2023-02-22T16:50:27.655Z,99318.78
2023-02-22T16:52:58.436Z,99325.09
2023-02-22T16:55:26.025Z,99316.88
2023-02-22T16:57:56.590Z,99317.06
2023-02-22T17:00:31.110Z,99316.13
2023-02-22T17:03:03.746Z,99322.72
2023-02-22T17:05:31.739Z,99324.03
2023-02-22T17:07:59.280Z,99326.25
2023-02-22T17:10:27.028Z,99321.69
2023-02-22T17:12:54.696Z,99324.34
2023-02-22T17:15:25.016Z,99321.50
2023-02-22T17:17:53.964Z,99336.25
2023-02-22T17:20:29.988Z,99329.59
2023-02-22T17:22:58.859Z,99338.72
2023-02-22T17:25:30.674Z,99326.13
2023-02-22T17:27:58.136Z,99329.75
2023-02-22T17:30:25.956Z,99337.28
2023-02-22T17:32:55.937Z,99334.94
2023-02-22T17:35:26.846Z,99342.22
2023-02-22T17:37:54.337Z,99336.47
2023-02-22T17:40:21.905Z,99338.94
2023-02-22T17:42:54.416Z,99330.25
2023-02-22T17:45:23.341Z,99347.69
2023-02-22T17:47:51.676Z,99354.75
2023-02-22T17:50:19.959Z,99354.66
2023-02-22T17:52:51.470Z,99351.91
2023-02-22T17:55:20.236Z,99358.78
2023-02-22T17:57:48.794Z,99366.63
2023-02-22T18:00:23.326Z,99368.84
2023-02-22T18:02:52.364Z,99368.19
2023-02-22T18:05:20.195Z,99368.91
2023-02-22T18:07:49.039Z,99368.25
2023-02-22T18:10:20.594Z,99366.94
2023-02-22T18:12:48.829Z,99365.78
2023-02-22T18:15:17.524Z,99367.41
2023-02-22T18:17:46.178Z,99366.75
2023-02-22T18:20:15.421Z,99369.41
2023-02-22T18:22:44.207Z,99372.19
2023-02-22T18:25:15.657Z,99370.56
2023-02-22T18:27:44.052Z,99368.28
2023-02-22T18:30:13.300Z,99367.06
2023-02-22T18:32:41.577Z,99370.66
2023-02-22T18:35:09.207Z,99372.47
2023-02-22T18:37:36.932Z,99376.69
2023-02-22T18:40:10.143Z,99375.63
2023-02-22T18:42:40.128Z,99372.28
2023-02-22T18:45:08.702Z,99372.19
2023-02-22T18:47:40.337Z,99368.78
2023-02-22T18:50:08.273Z,99373.53
2023-02-22T18:52:44.596Z,99375.81
2023-02-22T18:55:13.936Z,99373.63
2023-02-22T18:57:42.982Z,99370.56
2023-02-22T19:00:12.173Z,99373.44
2023-02-22T19:02:43.342Z,99367.63
2023-02-22T19:05:11.405Z,99371.06
2023-02-22T19:07:38.940Z,99375.25
2023-02-22T19:10:07.494Z,99371.72
2023-02-22T19:12:35.119Z,99372.19
2023-02-22T19:15:04.087Z,99372.19
2023-02-22T19:17:32.532Z,99368.78
2023-02-22T19:20:00.009Z,99377.53
2023-02-22T19:22:32.602Z,99372.47
2023-02-22T19:25:01.166Z,99376.28
2023-02-22T19:27:30.257Z,99376.56
2023-02-22T19:29:57.967Z,99389.19
2023-02-22T19:32:26.957Z,99382.28
2023-02-22T19:35:01.891Z,99389.44
2023-02-22T19:37:35.346Z,99388.59
2023-02-22T19:40:07.081Z,99389.19
2023-02-22T19:42:34.557Z,99389.19
2023-02-22T19:45:02.190Z,99398.69
2023-02-22T19:47:31.014Z,99393.72
2023-02-22T19:50:00.044Z,99394.38
2023-02-22T19:52:28.786Z,99397.44
2023-02-22T19:54:56.389Z,99400.88
2023-02-22T19:57:24.756Z,99402.97
2023-02-22T19:59:52.263Z,99403.03
2023-02-22T20:02:22.793Z,99401.31
2023-02-22T20:04:51.659Z,99408.31
2023-02-22T20:07:19.158Z,99414.94
2023-02-22T20:09:46.703Z,99414.03
2023-02-22T20:12:14.182Z,99414.94
2023-02-22T20:14:41.804Z,99414.69
2023-02-22T20:17:10.159Z,99410.09
2023-02-22T20:19:40.195Z,99425.75
2023-02-22T20:22:10.121Z,99426.97
2023-02-22T20:24:37.642Z,99414.22
2023-02-22T20:27:05.096Z,99411.19
2023-02-22T20:29:32.613Z,99421.56
2023-02-22T20:32:01.562Z,99415.03
2023-02-22T20:34:31.333Z,99425.00
2023-02-22T20:36:59.368Z,99417.13
2023-02-22T20:39:28.182Z,99423.13
2023-02-22T20:41:55.853Z,99417.44
2023-02-22T20:44:23.352Z,99423.38
2023-02-22T20:46:50.888Z,99412.34
2023-02-22T20:49:21.226Z,99408.03
2023-02-22T20:51:49.824Z,99418.25
2023-02-22T20:54:17.963Z,99417.66
2023-02-22T20:56:48.124Z,99414.13
2023-02-22T20:59:17.600Z,99416.88
2023-02-22T21:01:47.341Z,99413.47
2023-02-22T21:04:14.936Z,99419.84
2023-02-22T21:06:42.955Z,99418.47
2023-02-22T21:09:14.329Z,99415.88
2023-02-22T21:11:41.959Z,99415.84
2023-02-22T21:14:12.247Z,99423.28
2023-02-22T21:16:39.742Z,99423.03
2023-02-22T21:19:08.582Z,99431.97
2023-02-22T21:21:36.501Z,99430.19
2023-02-22T21:24:04.388Z,99427.69
2023-02-22T21:26:33.767Z,99434.31
2023-02-22T21:29:03.365Z,99433.38
2023-02-22T21:31:33.891Z,99431.63
2023-02-22T21:34:03.991Z,99425.94
2023-02-22T21:36:32.001Z,99432.81
2023-02-22T21:39:00.745Z,99436.84
2023-02-22T21:41:30.812Z,99427.59
2023-02-22T21:43:59.882Z,99423.84
2023-02-22T21:46:29.306Z,99429.69
2023-02-22T21:48:59.202Z,99423.19
2023-02-22T21:51:31.220Z,99421.09
2023-02-22T21:54:00.917Z,99421.34
2023-02-22T21:56:29.249Z,99426.66
2023-02-22T21:58:59.650Z,99421.69
2023-02-22T22:01:28.314Z,99422.47
2023-02-22T22:03:59.875Z,99432.81
2023-02-22T22:06:28.716Z,99429.00
2023-02-22T22:08:57.120Z,99425.91
2023-02-22T22:11:25.036Z,99425.91
2023-02-22T22:13:56.871Z,99422.13
2023-02-22T22:16:26.373Z,99418.31
2023-02-22T22:18:54.904Z,99420.50
2023-02-22T22:21:26.750Z,99418.66
2023-02-22T22:23:55.898Z,99412.66
2023-02-22T22:26:25.333Z,99421.34
2023-02-22T22:28:54.710Z,99417.97
2023-02-22T22:31:24.716Z,99415.06
2023-02-22T22:33:52.684Z,99417.13
2023-02-22T22:36:22.253Z,99428.00
2023-02-22T22:38:52.687Z,99423.97
2023-02-22T22:41:21.767Z,99419.66
2023-02-22T22:43:49.409Z,99419.22
2023-02-22T22:46:18.574Z,99420.66
2023-02-22T22:48:47.514Z,99425.34
2023-02-22T22:51:18.105Z,99424.72
2023-02-22T22:53:47.294Z,99431.03
2023-02-22T22:56:17.601Z,99424.22
2023-02-22T22:58:52.827Z,99428.16
2023-02-22T23:01:26.533Z,99425.94
2023-02-22T23:03:56.147Z,99425.75
2023-02-22T23:06:28.084Z,99431.84
2023-02-22T23:08:59.852Z,99429.53
2023-02-22T23:11:30.488Z,99429.53
2023-02-22T23:14:00.062Z,99428.59
2023-02-22T23:16:27.531Z,99430.03
2023-02-22T23:18:55.169Z,99424.56
2023-02-22T23:21:24.267Z,99421.09
2023-02-22T23:23:53.219Z,99420.16
2023-02-22T23:26:20.695Z,99420.59
2023-02-22T23:28:52.337Z,99418.53
2023-02-22T23:31:20.313Z,99428.94
2023-02-22T23:33:49.078Z,99425.41
2023-02-22T23:36:17.279Z,99430.38
2023-02-22T23:38:45.899Z,99430.81
2023-02-22T23:41:17.088Z,99437.00
2023-02-22T23:43:47.148Z,99429.00
2023-02-22T23:46:19.197Z,99429.09
2023-02-22T23:48:51.611Z,99435.03
2023-02-22T23:51:24.919Z,99435.97
2023-02-22T23:53:55.496Z,99446.72
2023-02-22T23:56:26.164Z,99443.47
2023-02-22T23:58:56.960Z,99440.66
